sensor_id;sensor_type;location;lat;lon;timestamp;pressure;altitude;pressure_sealevel;temperature;humidity
28027;BME280;15344;52.342;-1.290;2023-11-21T00:01:06;100168.36;;;12.40;100.00
28027;BME280;15344;52.342;-1.290;2023-11-21T00:03:30;100168.19;;;13.61;100.00
28027;BME280;15344;52.342;-1.290;2023-11-21T00:05:55;100169.63;;;13.76;100.00
28027;BME280;15344;52.342;-1.290;2023-11-21T00:08:21;100173.36;;;13.27;100.00
28027;BME280;15344;52.342;-1.290;2023-11-21T00:10:47;100180.59;;;12.87;100.00
28027;BME280;15344;52.342;-1.290;2023-11-21T00:13:12;100183.40;;;12.76;100.00
28027;BME280;15344;52.342;-1.290;2023-11-21T00:15:37;100184.85;;;12.70;100.00
28027;BME280;15344;52.342;-1.290;2023-11-21T00:18:03;100192.67;;;13.46;100.00
28027;BME280;15344;52.342;-1.290;2023-11-21T00:20:28;100196.88;;;12.62;100.00
28027;BME280;15344;52.342;-1.290;2023-11-21T00:22:54;100199.01;;;13.61;100.00
28027;BME280;15344;52.342;-1.290;2023-11-21T00:25:20;100199.99;;;12.05;100.00
28027;BME280;15344;52.342;-1.290;2023-11-21T00:27:45;100205.18;;;13.13;100.00
28027;BME280;15344;52.342;-1.290;2023-11-21T00:30:12;100204.89;;;12.77;100.00
28027;BME280;15344;52.342;-1.290;2023-11-21T00:32:37;100203.90;;;13.50;100.00
28027;BME280;15344;52.342;-1.290;2023-11-21T00:35:02;100209.70;;;13.63;100.00
28027;BME280;15344;52.342;-1.290;2023-11-21T00:37:27;100214.01;;;13.30;100.00
28027;BME280;15344;52.342;-1.290;2023-11-21T00:39:53;100214.24;;;13.37;100.00
28027;BME280;15344;52.342;-1.290;2023-11-21T00:42:18;100210.86;;;12.57;100.00
28027;BME280;15344;52.342;-1.290;2023-11-21T00:44:43;100216.75;;;12.42;100.00
28027;BME280;15344;52.342;-1.290;2023-11-21T00:47:09;100215.69;;;11.88;100.00
28027;BME280;15344;52.342;-1.290;2023-11-21T00:49:34;100221.35;;;12.06;100.00
28027;BME280;15344;52.342;-1.290;2023-11-21T00:51:59;100226.60;;;12.24;100.00
28027;BME280;15344;52.342;-1.290;2023-11-21T00:54:24;100229.13;;;12.50;100.00
28027;BME280;15344;52.342;-1.290;2023-11-21T00:56:50;100231.27;;;13.09;100.00
28027;BME280;15344;52.342;-1.290;2023-11-21T00:59:15;100234.82;;;13.36;100.00
28027;BME280;15344;52.342;-1.290;2023-11-21T01:01:40;100238.24;;;13.23;100.00
28027;BME280;15344;52.342;-1.290;2023-11-21T01:04:06;100236.58;;;12.45;100.00
28027;BME280;15344;52.342;-1.290;2023-11-21T01:06:31;100243.96;;;12.88;100.00
28027;BME280;15344;52.342;-1.290;2023-11-21T01:08:57;100247.50;;;13.12;100.00
28027;BME280;15344;52.342;-1.290;2023-11-21T01:11:22;100253.98;;;14.17;100.00
28027;BME280;15344;52.342;-1.290;2023-11-21T01:13:48;100256.45;;;13.47;100.00
28027;BME280;15344;52.342;-1.290;2023-11-21T01:16:13;100261.36;;;13.68;100.00
28027;BME280;15344;52.342;-1.290;2023-11-21T01:18:38;100267.90;;;13.97;100.00
28027;BME280;15344;52.342;-1.290;2023-11-21T01:21:04;100270.09;;;13.92;100.00
28027;BME280;15344;52.342;-1.290;2023-11-21T01:23:29;100276.86;;;13.52;100.00
28027;BME280;15344;52.342;-1.290;2023-11-21T01:25:56;100280.95;;;14.02;100.00
28027;BME280;15344;52.342;-1.290;2023-11-21T01:28:20;100285.20;;;13.45;100.00
28027;BME280;15344;52.342;-1.290;2023-11-21T01:30:45;100289.20;;;12.47;100.00
28027;BME280;15344;52.342;-1.290;2023-11-21T01:33:11;100292.33;;;13.18;100.00
28027;BME280;15344;52.342;-1.290;2023-11-21T01:35:36;100301.63;;;11.76;100.00
28027;BME280;15344;52.342;-1.290;2023-11-21T01:38:01;100306.62;;;11.77;100.00
28027;BME280;15344;52.342;-1.290;2023-11-21T01:40:26;100311.91;;;11.48;100.00
28027;BME280;15344;52.342;-1.290;2023-11-21T01:42:53;100317.96;;;11.88;100.00
28027;BME280;15344;52.342;-1.290;2023-11-21T01:45:17;100323.97;;;12.54;100.00
28027;BME280;15344;52.342;-1.290;2023-11-21T01:47:44;100328.22;;;11.11;100.00
28027;BME280;15344;52.342;-1.290;2023-11-21T01:50:09;100331.28;;;11.81;100.00
28027;BME280;15344;52.342;-1.290;2023-11-21T01:52:34;100325.28;;;10.58;100.00
28027;BME280;15344;52.342;-1.290;2023-11-21T01:54:59;100322.84;;;11.73;100.00
28027;BME280;15344;52.342;-1.290;2023-11-21T01:57:24;100323.45;;;11.61;100.00
28027;BME280;15344;52.342;-1.290;2023-11-21T01:59:49;100330.40;;;10.89;100.00
28027;BME280;15344;52.342;-1.290;2023-11-21T02:02:14;100334.06;;;10.29;100.00
28027;BME280;15344;52.342;-1.290;2023-11-21T02:04:40;100337.30;;;10.82;100.00
28027;BME280;15344;52.342;-1.290;2023-11-21T02:07:05;100340.78;;;11.29;100.00
28027;BME280;15344;52.342;-1.290;2023-11-21T02:09:30;100342.84;;;11.88;100.00
28027;BME280;15344;52.342;-1.290;2023-11-21T02:11:56;100344.21;;;10.82;100.00
28027;BME280;15344;52.342;-1.290;2023-11-21T02:14:21;100347.42;;;11.04;100.00
28027;BME280;15344;52.342;-1.290;2023-11-21T02:16:46;100352.28;;;11.36;100.00
28027;BME280;15344;52.342;-1.290;2023-11-21T02:19:13;100358.94;;;10.99;100.00
28027;BME280;15344;52.342;-1.290;2023-11-21T02:21:37;100358.14;;;11.16;100.00
28027;BME280;15344;52.342;-1.290;2023-11-21T02:24:03;100366.41;;;11.54;100.00
28027;BME280;15344;52.342;-1.290;2023-11-21T02:26:28;100372.64;;;12.13;100.00
28027;BME280;15344;52.342;-1.290;2023-11-21T02:28:53;100375.20;;;11.29;100.00
28027;BME280;15344;52.342;-1.290;2023-11-21T02:31:18;100378.93;;;11.27;100.00
28027;BME280;15344;52.342;-1.290;2023-11-21T02:33:44;100390.44;;;10.72;100.00
28027;BME280;15344;52.342;-1.290;2023-11-21T02:36:09;100390.87;;;11.12;100.00
28027;BME280;15344;52.342;-1.290;2023-11-21T02:38:34;100395.51;;;10.88;100.00
28027;BME280;15344;52.342;-1.290;2023-11-21T02:41:00;100399.34;;;10.60;100.00
28027;BME280;15344;52.342;-1.290;2023-11-21T02:43:25;100400.98;;;11.54;100.00
28027;BME280;15344;52.342;-1.290;2023-11-21T02:45:50;100396.18;;;11.54;100.00
28027;BME280;15344;52.342;-1.290;2023-11-21T02:48:16;100401.16;;;10.96;100.00
28027;BME280;15344;52.342;-1.290;2023-11-21T02:50:41;100409.77;;;10.00;100.00
28027;BME280;15344;52.342;-1.290;2023-11-21T02:53:06;100410.82;;;11.28;100.00
28027;BME280;15344;52.342;-1.290;2023-11-21T02:55:32;100409.74;;;11.38;100.00
28027;BME280;15344;52.342;-1.290;2023-11-21T02:57:57;100414.83;;;10.98;100.00
28027;BME280;15344;52.342;-1.290;2023-11-21T03:00:27;100420.72;;;11.90;100.00
28027;BME280;15344;52.342;-1.290;2023-11-21T03:02:48;100428.96;;;11.70;100.00
28027;BME280;15344;52.342;-1.290;2023-11-21T03:05:13;100427.67;;;11.06;100.00
28027;BME280;15344;52.342;-1.290;2023-11-21T03:07:39;100423.63;;;11.41;100.00
28027;BME280;15344;52.342;-1.290;2023-11-21T03:10:05;100429.02;;;11.63;100.00
28027;BME280;15344;52.342;-1.290;2023-11-21T03:12:29;100435.09;;;10.83;100.00
28027;BME280;15344;52.342;-1.290;2023-11-21T03:14:54;100437.97;;;12.22;100.00
28027;BME280;15344;52.342;-1.290;2023-11-21T03:17:20;100440.38;;;10.89;100.00
28027;BME280;15344;52.342;-1.290;2023-11-21T03:19:45;100444.18;;;10.81;100.00
28027;BME280;15344;52.342;-1.290;2023-11-21T03:22:10;100447.91;;;11.14;100.00
28027;BME280;15344;52.342;-1.290;2023-11-21T03:24:36;100453.87;;;10.75;100.00
28027;BME280;15344;52.342;-1.290;2023-11-21T03:27:01;100458.32;;;11.24;100.00
28027;BME280;15344;52.342;-1.290;2023-11-21T03:29:26;100464.23;;;11.02;100.00
28027;BME280;15344;52.342;-1.290;2023-11-21T03:31:52;100470.21;;;10.38;100.00
28027;BME280;15344;52.342;-1.290;2023-11-21T03:34:23;100472.79;;;11.34;100.00
28027;BME280;15344;52.342;-1.290;2023-11-21T03:36:43;100471.83;;;11.73;100.00
28027;BME280;15344;52.342;-1.290;2023-11-21T03:39:08;100462.52;;;11.77;100.00
28027;BME280;15344;52.342;-1.290;2023-11-21T03:41:33;100465.38;;;11.36;100.00
28027;BME280;15344;52.342;-1.290;2023-11-21T03:43:58;100465.28;;;11.26;100.00
28027;BME280;15344;52.342;-1.290;2023-11-21T03:46:23;100463.47;;;11.31;100.00
28027;BME280;15344;52.342;-1.290;2023-11-21T03:48:49;100469.86;;;11.32;100.00
28027;BME280;15344;52.342;-1.290;2023-11-21T03:51:14;100472.59;;;11.38;100.00
28027;BME280;15344;52.342;-1.290;2023-11-21T03:53:45;100475.92;;;11.69;100.00
28027;BME280;15344;52.342;-1.290;2023-11-21T03:56:06;100476.18;;;11.54;100.00
28027;BME280;15344;52.342;-1.290;2023-11-21T03:58:30;100483.21;;;11.87;100.00
28027;BME280;15344;52.342;-1.290;2023-11-21T04:00:55;100487.10;;;11.87;100.00
28027;BME280;15344;52.342;-1.290;2023-11-21T04:03:26;100487.24;;;11.92;100.00
28027;BME280;15344;52.342;-1.290;2023-11-21T04:05:46;100492.62;;;10.89;100.00
28027;BME280;15344;52.342;-1.290;2023-11-21T04:08:12;100481.91;;;11.91;100.00
28027;BME280;15344;52.342;-1.290;2023-11-21T04:10:37;100480.08;;;11.60;100.00
28027;BME280;15344;52.342;-1.290;2023-11-21T04:13:02;100481.04;;;11.47;100.00
28027;BME280;15344;52.342;-1.290;2023-11-21T04:15:28;100487.60;;;11.34;100.00
28027;BME280;15344;52.342;-1.290;2023-11-21T04:17:53;100493.51;;;11.66;100.00
28027;BME280;15344;52.342;-1.290;2023-11-21T04:20:18;100499.10;;;12.31;100.00
28027;BME280;15344;52.342;-1.290;2023-11-21T04:22:44;100498.95;;;11.92;100.00
28027;BME280;15344;52.342;-1.290;2023-11-21T04:25:09;100496.74;;;11.80;100.00
28027;BME280;15344;52.342;-1.290;2023-11-21T04:27:34;100499.09;;;12.25;100.00
28027;BME280;15344;52.342;-1.290;2023-11-21T04:29:59;100509.32;;;11.91;100.00
28027;BME280;15344;52.342;-1.290;2023-11-21T04:32:25;100513.71;;;11.91;100.00
28027;BME280;15344;52.342;-1.290;2023-11-21T04:34:50;100518.85;;;12.56;100.00
28027;BME280;15344;52.342;-1.290;2023-11-21T04:37:16;100524.99;;;11.74;100.00
28027;BME280;15344;52.342;-1.290;2023-11-21T04:39:41;100532.89;;;11.59;100.00
28027;BME280;15344;52.342;-1.290;2023-11-21T04:42:06;100533.22;;;12.87;100.00
28027;BME280;15344;52.342;-1.290;2023-11-21T04:44:32;100536.04;;;12.62;99.11
28027;BME280;15344;52.342;-1.290;2023-11-21T04:47:02;100530.94;;;11.91;100.00
28027;BME280;15344;52.342;-1.290;2023-11-21T04:49:22;100540.07;;;11.60;100.00
28027;BME280;15344;52.342;-1.290;2023-11-21T04:51:47;100532.06;;;12.03;100.00
28027;BME280;15344;52.342;-1.290;2023-11-21T04:54:13;100532.09;;;12.33;100.00
28027;BME280;15344;52.342;-1.290;2023-11-21T04:56:38;100536.13;;;12.04;100.00
28027;BME280;15344;52.342;-1.290;2023-11-21T04:59:04;100545.18;;;11.00;100.00
28027;BME280;15344;52.342;-1.290;2023-11-21T05:01:29;100549.72;;;11.47;100.00
28027;BME280;15344;52.342;-1.290;2023-11-21T05:03:54;100556.03;;;11.09;100.00
28027;BME280;15344;52.342;-1.290;2023-11-21T05:06:19;100557.08;;;10.51;100.00
28027;BME280;15344;52.342;-1.290;2023-11-21T05:08:45;100562.91;;;11.08;100.00
28027;BME280;15344;52.342;-1.290;2023-11-21T05:11:10;100569.98;;;11.27;100.00
28027;BME280;15344;52.342;-1.290;2023-11-21T05:13:35;100568.21;;;11.62;100.00
28027;BME280;15344;52.342;-1.290;2023-11-21T05:16:01;100574.24;;;11.32;100.00
28027;BME280;15344;52.342;-1.290;2023-11-21T05:18:26;100581.25;;;11.55;100.00
28027;BME280;15344;52.342;-1.290;2023-11-21T05:20:51;100583.45;;;11.79;100.00
28027;BME280;15344;52.342;-1.290;2023-11-21T05:23:16;100591.61;;;11.15;100.00
28027;BME280;15344;52.342;-1.290;2023-11-21T05:25:42;100591.88;;;11.77;100.00
28027;BME280;15344;52.342;-1.290;2023-11-21T05:28:07;100589.92;;;12.14;100.00
28027;BME280;15344;52.342;-1.290;2023-11-21T05:30:32;100594.18;;;12.37;96.43
28027;BME280;15344;52.342;-1.290;2023-11-21T05:32:58;100597.99;;;13.34;93.87
28027;BME280;15344;52.342;-1.290;2023-11-21T05:35:23;100594.12;;;12.48;97.53
28027;BME280;15344;52.342;-1.290;2023-11-21T05:37:48;100596.50;;;12.61;96.70
28027;BME280;15344;52.342;-1.290;2023-11-21T05:40:14;100600.06;;;13.15;94.25
28027;BME280;15344;52.342;-1.290;2023-11-21T05:42:40;100600.30;;;12.52;97.34
28027;BME280;15344;52.342;-1.290;2023-11-21T05:45:05;100601.08;;;11.10;100.00
28027;BME280;15344;52.342;-1.290;2023-11-21T05:47:30;100602.10;;;10.91;100.00
28027;BME280;15344;52.342;-1.290;2023-11-21T05:49:55;100606.03;;;10.92;100.00
28027;BME280;15344;52.342;-1.290;2023-11-21T05:52:20;100606.43;;;11.83;100.00
28027;BME280;15344;52.342;-1.290;2023-11-21T05:54:46;100609.41;;;11.13;100.00
28027;BME280;15344;52.342;-1.290;2023-11-21T05:57:11;100614.28;;;11.43;100.00
28027;BME280;15344;52.342;-1.290;2023-11-21T05:59:36;100619.04;;;12.24;99.36
28027;BME280;15344;52.342;-1.290;2023-11-21T06:02:02;100616.22;;;12.46;96.32
28027;BME280;15344;52.342;-1.290;2023-11-21T06:04:27;100632.32;;;11.54;100.00
28027;BME280;15344;52.342;-1.290;2023-11-21T06:06:52;100636.76;;;11.74;100.00
28027;BME280;15344;52.342;-1.290;2023-11-21T06:09:18;100634.84;;;11.50;100.00
28027;BME280;15344;52.342;-1.290;2023-11-21T06:11:43;100644.46;;;12.07;100.00
28027;BME280;15344;52.342;-1.290;2023-11-21T06:14:08;100644.96;;;11.69;100.00
28027;BME280;15344;52.342;-1.290;2023-11-21T06:16:34;100646.86;;;11.25;100.00
28027;BME280;15344;52.342;-1.290;2023-11-21T06:18:59;100651.92;;;10.05;100.00
28027;BME280;15344;52.342;-1.290;2023-11-21T06:21:24;100656.58;;;10.46;100.00
28027;BME280;15344;52.342;-1.290;2023-11-21T06:23:50;100658.81;;;9.87;100.00
28027;BME280;15344;52.342;-1.290;2023-11-21T06:26:15;100658.44;;;10.91;100.00
28027;BME280;15344;52.342;-1.290;2023-11-21T06:28:40;100661.40;;;10.52;100.00
28027;BME280;15344;52.342;-1.290;2023-11-21T06:31:06;100662.19;;;10.57;100.00
28027;BME280;15344;52.342;-1.290;2023-11-21T06:33:31;100660.72;;;10.40;100.00
28027;BME280;15344;52.342;-1.290;2023-11-21T06:35:56;100672.73;;;10.21;100.00
28027;BME280;15344;52.342;-1.290;2023-11-21T06:38:22;100678.81;;;10.01;100.00
28027;BME280;15344;52.342;-1.290;2023-11-21T06:40:47;100686.85;;;10.91;100.00
28027;BME280;15344;52.342;-1.290;2023-11-21T06:43:12;100695.57;;;9.90;100.00
28027;BME280;15344;52.342;-1.290;2023-11-21T06:45:38;100698.65;;;10.76;100.00
28027;BME280;15344;52.342;-1.290;2023-11-21T06:48:03;100697.89;;;9.57;100.00
28027;BME280;15344;52.342;-1.290;2023-11-21T06:50:28;100699.96;;;9.85;100.00
28027;BME280;15344;52.342;-1.290;2023-11-21T06:52:54;100705.35;;;9.90;100.00
28027;BME280;15344;52.342;-1.290;2023-11-21T06:55:19;100705.78;;;10.50;100.00
28027;BME280;15344;52.342;-1.290;2023-11-21T06:57:44;100707.89;;;9.68;100.00
28027;BME280;15344;52.342;-1.290;2023-11-21T07:00:11;100710.62;;;10.40;100.00
28027;BME280;15344;52.342;-1.290;2023-11-21T07:02:35;100709.37;;;11.20;100.00
28027;BME280;15344;52.342;-1.290;2023-11-21T07:05:00;100714.51;;;10.16;100.00
28027;BME280;15344;52.342;-1.290;2023-11-21T07:07:27;100714.10;;;9.63;100.00
28027;BME280;15344;52.342;-1.290;2023-11-21T07:09:51;100711.09;;;9.30;100.00
28027;BME280;15344;52.342;-1.290;2023-11-21T07:12:17;100717.90;;;10.35;100.00
28027;BME280;15344;52.342;-1.290;2023-11-21T07:14:42;100721.47;;;10.28;100.00
28027;BME280;15344;52.342;-1.290;2023-11-21T07:17:07;100719.13;;;11.09;100.00
28027;BME280;15344;52.342;-1.290;2023-11-21T07:19:33;100730.43;;;9.78;100.00
28027;BME280;15344;52.342;-1.290;2023-11-21T07:21:58;100736.85;;;9.40;100.00
28027;BME280;15344;52.342;-1.290;2023-11-21T07:24:23;100743.87;;;9.26;100.00
28027;BME280;15344;52.342;-1.290;2023-11-21T07:26:49;100743.99;;;9.79;100.00
28027;BME280;15344;52.342;-1.290;2023-11-21T07:29:15;100751.18;;;10.46;100.00
28027;BME280;15344;52.342;-1.290;2023-11-21T07:31:40;100750.80;;;10.71;100.00
28027;BME280;15344;52.342;-1.290;2023-11-21T07:34:05;100753.14;;;11.26;100.00
28027;BME280;15344;52.342;-1.290;2023-11-21T07:36:30;100754.90;;;10.89;100.00
28027;BME280;15344;52.342;-1.290;2023-11-21T07:38:56;100758.64;;;11.45;100.00
28027;BME280;15344;52.342;-1.290;2023-11-21T07:41:21;100760.25;;;11.32;100.00
28027;BME280;15344;52.342;-1.290;2023-11-21T07:43:47;100761.24;;;10.55;100.00
28027;BME280;15344;52.342;-1.290;2023-11-21T07:46:12;100764.50;;;10.65;100.00
28027;BME280;15344;52.342;-1.290;2023-11-21T07:48:38;100770.68;;;9.84;100.00
28027;BME280;15344;52.342;-1.290;2023-11-21T07:51:04;100771.50;;;10.23;100.00
28027;BME280;15344;52.342;-1.290;2023-11-21T07:53:28;100778.54;;;9.84;100.00
28027;BME280;15344;52.342;-1.290;2023-11-21T07:55:53;100787.59;;;10.37;100.00
28027;BME280;15344;52.342;-1.290;2023-11-21T07:58:19;100793.89;;;10.28;100.00
28027;BME280;15344;52.342;-1.290;2023-11-21T08:00:44;100797.38;;;10.87;100.00
28027;BME280;15344;52.342;-1.290;2023-11-21T08:03:09;100795.01;;;10.24;100.00
28027;BME280;15344;52.342;-1.290;2023-11-21T08:05:35;100806.73;;;9.18;100.00
28027;BME280;15344;52.342;-1.290;2023-11-21T08:08:00;100812.20;;;10.63;100.00
28027;BME280;15344;52.342;-1.290;2023-11-21T08:10:26;100812.29;;;10.27;100.00
28027;BME280;15344;52.342;-1.290;2023-11-21T08:12:51;100810.21;;;10.27;100.00
28027;BME280;15344;52.342;-1.290;2023-11-21T08:15:17;100811.65;;;10.42;100.00
28027;BME280;15344;52.342;-1.290;2023-11-21T08:17:42;100814.09;;;10.05;100.00
28027;BME280;15344;52.342;-1.290;2023-11-21T08:20:08;100824.24;;;10.72;100.00
28027;BME280;15344;52.342;-1.290;2023-11-21T08:22:32;100827.88;;;11.31;100.00
28027;BME280;15344;52.342;-1.290;2023-11-21T08:24:58;100843.13;;;10.62;100.00
28027;BME280;15344;52.342;-1.290;2023-11-21T08:27:23;100842.82;;;11.45;100.00
28027;BME280;15344;52.342;-1.290;2023-11-21T08:29:49;100846.98;;;11.53;100.00
28027;BME280;15344;52.342;-1.290;2023-11-21T08:32:14;100850.98;;;10.95;100.00
28027;BME280;15344;52.342;-1.290;2023-11-21T08:34:39;100859.65;;;11.28;100.00
28027;BME280;15344;52.342;-1.290;2023-11-21T08:37:05;100866.47;;;10.89;100.00
28027;BME280;15344;52.342;-1.290;2023-11-21T08:39:30;100874.84;;;10.54;100.00
28027;BME280;15344;52.342;-1.290;2023-11-21T08:41:55;100874.57;;;11.51;100.00
28027;BME280;15344;52.342;-1.290;2023-11-21T08:44:21;100881.79;;;11.11;100.00
28027;BME280;15344;52.342;-1.290;2023-11-21T08:46:46;100885.81;;;10.71;100.00
28027;BME280;15344;52.342;-1.290;2023-11-21T08:49:12;100888.24;;;11.44;100.00
28027;BME280;15344;52.342;-1.290;2023-11-21T08:51:37;100894.30;;;11.56;100.00
28027;BME280;15344;52.342;-1.290;2023-11-21T08:54:02;100903.34;;;10.40;100.00
28027;BME280;15344;52.342;-1.290;2023-11-21T08:56:27;100906.94;;;10.78;100.00
28027;BME280;15344;52.342;-1.290;2023-11-21T08:58:53;100904.79;;;11.01;100.00
28027;BME280;15344;52.342;-1.290;2023-11-21T09:01:18;100905.82;;;12.06;100.00
28027;BME280;15344;52.342;-1.290;2023-11-21T09:03:43;100910.25;;;10.77;100.00
28027;BME280;15344;52.342;-1.290;2023-11-21T09:06:09;100918.96;;;9.54;100.00
28027;BME280;15344;52.342;-1.290;2023-11-21T09:08:34;100922.53;;;10.83;100.00
28027;BME280;15344;52.342;-1.290;2023-11-21T09:10:59;100921.14;;;10.53;100.00
28027;BME280;15344;52.342;-1.290;2023-11-21T09:13:25;100926.93;;;11.47;100.00
28027;BME280;15344;52.342;-1.290;2023-11-21T09:15:50;100928.92;;;11.94;100.00
28027;BME280;15344;52.342;-1.290;2023-11-21T09:18:16;100925.84;;;10.85;100.00
28027;BME280;15344;52.342;-1.290;2023-11-21T09:20:42;100928.24;;;10.10;100.00
28027;BME280;15344;52.342;-1.290;2023-11-21T09:23:06;100930.52;;;10.33;100.00
28027;BME280;15344;52.342;-1.290;2023-11-21T09:25:32;100937.87;;;11.21;100.00
28027;BME280;15344;52.342;-1.290;2023-11-21T09:27:57;100942.74;;;10.81;100.00
28027;BME280;15344;52.342;-1.290;2023-11-21T09:30:22;100952.11;;;10.46;100.00
28027;BME280;15344;52.342;-1.290;2023-11-21T09:32:48;100944.06;;;10.57;100.00
28027;BME280;15344;52.342;-1.290;2023-11-21T09:35:13;100942.65;;;10.32;100.00
28027;BME280;15344;52.342;-1.290;2023-11-21T09:37:38;100942.74;;;11.49;100.00
28027;BME280;15344;52.342;-1.290;2023-11-21T09:40:05;100949.29;;;10.66;100.00
28027;BME280;15344;52.342;-1.290;2023-11-21T09:42:35;100957.87;;;11.33;100.00
28027;BME280;15344;52.342;-1.290;2023-11-21T09:45:02;100965.29;;;10.27;100.00
28027;BME280;15344;52.342;-1.290;2023-11-21T09:47:21;100965.61;;;10.71;100.00
28027;BME280;15344;52.342;-1.290;2023-11-21T09:49:47;100964.47;;;11.31;100.00
28027;BME280;15344;52.342;-1.290;2023-11-21T09:52:17;100961.64;;;10.36;100.00
28027;BME280;15344;52.342;-1.290;2023-11-21T09:54:36;100966.05;;;10.37;100.00
28027;BME280;15344;52.342;-1.290;2023-11-21T09:57:02;100978.72;;;9.95;100.00
28027;BME280;15344;52.342;-1.290;2023-11-21T09:59:30;100977.08;;;10.40;100.00
28027;BME280;15344;52.342;-1.290;2023-11-21T10:01:53;100976.05;;;10.50;100.00
28027;BME280;15344;52.342;-1.290;2023-11-21T10:04:17;100991.18;;;11.63;100.00
28027;BME280;15344;52.342;-1.290;2023-11-21T10:06:43;100997.03;;;10.66;100.00
28027;BME280;15344;52.342;-1.290;2023-11-21T10:09:10;101005.76;;;10.19;100.00
28027;BME280;15344;52.342;-1.290;2023-11-21T10:11:33;101009.05;;;11.35;100.00
28027;BME280;15344;52.342;-1.290;2023-11-21T10:13:59;101012.04;;;11.54;100.00
28027;BME280;15344;52.342;-1.290;2023-11-21T10:16:26;101018.94;;;10.66;100.00
28027;BME280;15344;52.342;-1.290;2023-11-21T10:18:52;101017.10;;;10.96;100.00
28027;BME280;15344;52.342;-1.290;2023-11-21T10:21:15;101025.81;;;10.46;100.00
28027;BME280;15344;52.342;-1.290;2023-11-21T10:23:40;101021.68;;;10.58;100.00
28027;BME280;15344;52.342;-1.290;2023-11-21T10:26:06;101031.08;;;10.64;100.00
28027;BME280;15344;52.342;-1.290;2023-11-21T10:28:33;101032.88;;;10.53;100.00
28027;BME280;15344;52.342;-1.290;2023-11-21T10:30:56;101040.78;;;10.86;100.00
28027;BME280;15344;52.342;-1.290;2023-11-21T10:33:27;101039.53;;;10.41;100.00
28027;BME280;15344;52.342;-1.290;2023-11-21T10:35:48;101038.21;;;11.26;100.00
28027;BME280;15344;52.342;-1.290;2023-11-21T10:38:12;101044.44;;;10.90;100.00
28027;BME280;15344;52.342;-1.290;2023-11-21T10:40:38;101053.78;;;10.44;100.00
28027;BME280;15344;52.342;-1.290;2023-11-21T10:43:06;101052.22;;;9.65;100.00
28027;BME280;15344;52.342;-1.290;2023-11-21T10:45:28;101053.76;;;10.26;100.00
28027;BME280;15344;52.342;-1.290;2023-11-21T10:47:53;101050.81;;;10.21;100.00
28027;BME280;15344;52.342;-1.290;2023-11-21T10:50:19;101058.89;;;9.73;100.00
28027;BME280;15344;52.342;-1.290;2023-11-21T10:52:45;101062.97;;;10.25;100.00
28027;BME280;15344;52.342;-1.290;2023-11-21T10:55:17;101066.91;;;10.74;100.00
28027;BME280;15344;52.342;-1.290;2023-11-21T10:57:35;101070.26;;;10.02;100.00
28027;BME280;15344;52.342;-1.290;2023-11-21T11:00:00;101076.90;;;10.33;100.00
28027;BME280;15344;52.342;-1.290;2023-11-21T11:02:26;101078.03;;;10.48;100.00
28027;BME280;15344;52.342;-1.290;2023-11-21T11:04:52;101079.18;;;9.87;100.00
28027;BME280;15344;52.342;-1.290;2023-11-21T11:07:17;101082.87;;;10.53;100.00
28027;BME280;15344;52.342;-1.290;2023-11-21T11:09:42;101085.20;;;10.86;100.00
28027;BME280;15344;52.342;-1.290;2023-11-21T11:12:08;101086.87;;;10.72;100.00
28027;BME280;15344;52.342;-1.290;2023-11-21T11:14:33;101089.06;;;9.91;100.00
28027;BME280;15344;52.342;-1.290;2023-11-21T11:16:58;101093.44;;;9.91;100.00
28027;BME280;15344;52.342;-1.290;2023-11-21T11:19:23;101094.64;;;10.93;100.00
28027;BME280;15344;52.342;-1.290;2023-11-21T11:21:55;101096.95;;;11.66;100.00
28027;BME280;15344;52.342;-1.290;2023-11-21T11:24:26;101106.24;;;11.21;100.00
28027;BME280;15344;52.342;-1.290;2023-11-21T11:26:46;101111.69;;;10.89;100.00
28027;BME280;15344;52.342;-1.290;2023-11-21T11:29:13;101105.06;;;11.39;100.00
28027;BME280;15344;52.342;-1.290;2023-11-21T11:31:37;101100.49;;;11.32;100.00
28027;BME280;15344;52.342;-1.290;2023-11-21T11:34:00;101102.09;;;11.50;100.00
28027;BME280;15344;52.342;-1.290;2023-11-21T11:36:26;101108.56;;;11.29;100.00
28027;BME280;15344;52.342;-1.290;2023-11-21T11:38:46;101108.53;;;12.04;100.00
28027;BME280;15344;52.342;-1.290;2023-11-21T11:41:12;101119.12;;;11.12;100.00
28027;BME280;15344;52.342;-1.290;2023-11-21T11:43:37;101117.92;;;11.77;100.00
28027;BME280;15344;52.342;-1.290;2023-11-21T11:46:03;101131.26;;;11.17;100.00
28027;BME280;15344;52.342;-1.290;2023-11-21T11:48:28;101132.44;;;11.12;100.00
28027;BME280;15344;52.342;-1.290;2023-11-21T11:51:03;101134.64;;;11.17;100.00
28027;BME280;15344;52.342;-1.290;2023-11-21T11:53:20;101145.16;;;11.06;100.00
28027;BME280;15344;52.342;-1.290;2023-11-21T11:55:44;101147.07;;;11.02;100.00
28027;BME280;15344;52.342;-1.290;2023-11-21T11:58:09;101154.35;;;10.57;100.00
28027;BME280;15344;52.342;-1.290;2023-11-21T12:00:35;101158.22;;;10.74;100.00
28027;BME280;15344;52.342;-1.290;2023-11-21T12:03:01;101159.52;;;11.02;100.00
28027;BME280;15344;52.342;-1.290;2023-11-21T12:05:26;101157.81;;;11.73;100.00
28027;BME280;15344;52.342;-1.290;2023-11-21T12:07:52;101167.75;;;10.61;100.00
28027;BME280;15344;52.342;-1.290;2023-11-21T12:10:17;101172.70;;;11.21;100.00
28027;BME280;15344;52.342;-1.290;2023-11-21T12:12:44;101170.66;;;11.54;100.00
28027;BME280;15344;52.342;-1.290;2023-11-21T12:15:07;101182.13;;;10.58;100.00
28027;BME280;15344;52.342;-1.290;2023-11-21T12:17:32;101191.90;;;10.61;100.00
28027;BME280;15344;52.342;-1.290;2023-11-21T12:20:02;101193.47;;;10.86;100.00